sensor_id;sensor_type;location;lat;lon;timestamp;P1;durP1;ratioP1;P2;durP2;ratioP2
60919;SDS011;59039;52.108;19.942;2023-02-26T00:00:27;8.40;;;3.90;;
60919;SDS011;59039;52.108;19.942;2023-02-26T00:02:53;6.30;;;3.60;;
60919;SDS011;59039;52.108;19.942;2023-02-26T00:05:26;9.00;;;4.00;;
60919;SDS011;59039;52.108;19.942;2023-02-26T00:07:57;13.00;;;5.00;;
60919;SDS011;59039;52.108;19.942;2023-02-26T00:10:22;11.70;;;4.20;;
60919;SDS011;59039;52.108;19.942;2023-02-26T00:12:48;7.20;;;3.60;;
60919;SDS011;59039;52.108;19.942;2023-02-26T00:15:13;8.50;;;4.00;;
60919;SDS011;59039;52.108;19.942;2023-02-26T00:17:57;9.20;;;4.20;;
60919;SDS011;59039;52.108;19.942;2023-02-26T00:20:28;9.10;;;4.30;;
60919;SDS011;59039;52.108;19.942;2023-02-26T00:22:56;10.00;;;3.90;;
60919;SDS011;59039;52.108;19.942;2023-02-26T00:25:21;10.80;;;4.80;;
60919;SDS011;59039;52.108;19.942;2023-02-26T00:27:47;11.90;;;4.60;;
60919;SDS011;59039;52.108;19.942;2023-02-26T00:30:12;10.60;;;4.00;;
60919;SDS011;59039;52.108;19.942;2023-02-26T00:32:38;9.00;;;4.10;;
60919;SDS011;59039;52.108;19.942;2023-02-26T00:35:08;8.30;;;3.40;;
60919;SDS011;59039;52.108;19.942;2023-02-26T00:40:40;6.90;;;4.00;;
60919;SDS011;59039;52.108;19.942;2023-02-26T00:43:29;7.80;;;3.60;;
60919;SDS011;59039;52.108;19.942;2023-02-26T00:45:57;8.40;;;4.00;;
60919;SDS011;59039;52.108;19.942;2023-02-26T00:51:12;12.90;;;4.20;;
60919;SDS011;59039;52.108;19.942;2023-02-26T00:53:49;9.90;;;4.50;;
60919;SDS011;59039;52.108;19.942;2023-02-26T00:56:39;9.90;;;4.30;;
60919;SDS011;59039;52.108;19.942;2023-02-26T00:59:04;10.00;;;4.20;;
60919;SDS011;59039;52.108;19.942;2023-02-26T01:01:29;9.00;;;4.50;;
60919;SDS011;59039;52.108;19.942;2023-02-26T01:03:55;9.80;;;4.40;;
60919;SDS011;59039;52.108;19.942;2023-02-26T01:06:20;7.40;;;4.30;;
60919;SDS011;59039;52.108;19.942;2023-02-26T01:08:54;10.20;;;4.40;;
60919;SDS011;59039;52.108;19.942;2023-02-26T01:11:25;10.90;;;4.20;;
60919;SDS011;59039;52.108;19.942;2023-02-26T01:13:51;14.30;;;5.50;;
60919;SDS011;59039;52.108;19.942;2023-02-26T01:16:18;10.60;;;4.70;;
60919;SDS011;59039;52.108;19.942;2023-02-26T01:18:53;11.00;;;4.70;;
60919;SDS011;59039;52.108;19.942;2023-02-26T01:21:46;11.20;;;4.40;;
60919;SDS011;59039;52.108;19.942;2023-02-26T01:24:18;10.30;;;4.70;;
60919;SDS011;59039;52.108;19.942;2023-02-26T01:26:54;8.60;;;3.70;;
60919;SDS011;59039;52.108;19.942;2023-02-26T01:29:19;9.80;;;4.20;;
60919;SDS011;59039;52.108;19.942;2023-02-26T01:31:48;9.60;;;5.10;;
60919;SDS011;59039;52.108;19.942;2023-02-26T01:34:21;11.00;;;4.30;;
60919;SDS011;59039;52.108;19.942;2023-02-26T01:37:05;6.80;;;4.10;;
60919;SDS011;59039;52.108;19.942;2023-02-26T01:39:37;7.30;;;3.40;;
60919;SDS011;59039;52.108;19.942;2023-02-26T01:42:11;6.30;;;3.90;;
60919;SDS011;59039;52.108;19.942;2023-02-26T01:44:43;9.90;;;3.90;;
60919;SDS011;59039;52.108;19.942;2023-02-26T01:47:19;7.90;;;4.70;;
60919;SDS011;59039;52.108;19.942;2023-02-26T01:49:51;10.60;;;5.50;;
60919;SDS011;59039;52.108;19.942;2023-02-26T01:55:15;14.50;;;5.20;;
60919;SDS011;59039;52.108;19.942;2023-02-26T01:57:43;11.10;;;5.00;;
60919;SDS011;59039;52.108;19.942;2023-02-26T02:00:09;11.30;;;5.20;;
60919;SDS011;59039;52.108;19.942;2023-02-26T02:02:35;9.40;;;4.20;;
60919;SDS011;59039;52.108;19.942;2023-02-26T02:05:06;8.30;;;4.90;;
60919;SDS011;59039;52.108;19.942;2023-02-26T02:07:37;11.80;;;5.80;;
60919;SDS011;59039;52.108;19.942;2023-02-26T02:10:03;7.50;;;4.40;;
60919;SDS011;59039;52.108;19.942;2023-02-26T02:15:39;7.00;;;3.80;;
60919;SDS011;59039;52.108;19.942;2023-02-26T02:18:21;7.60;;;4.10;;
60919;SDS011;59039;52.108;19.942;2023-02-26T02:24:09;11.60;;;4.70;;
60919;SDS011;59039;52.108;19.942;2023-02-26T02:29:30;11.20;;;4.80;;
60919;SDS011;59039;52.108;19.942;2023-02-26T02:34:51;8.30;;;4.30;;
60919;SDS011;59039;52.108;19.942;2023-02-26T02:37:26;8.40;;;4.10;;
60919;SDS011;59039;52.108;19.942;2023-02-26T02:40:03;7.50;;;4.00;;
60919;SDS011;59039;52.108;19.942;2023-02-26T02:42:51;8.30;;;4.20;;
60919;SDS011;59039;52.108;19.942;2023-02-26T02:45:23;10.60;;;5.00;;
60919;SDS011;59039;52.108;19.942;2023-02-26T02:48:19;15.00;;;6.40;;
60919;SDS011;59039;52.108;19.942;2023-02-26T02:50:49;9.80;;;4.80;;
60919;SDS011;59039;52.108;19.942;2023-02-26T02:53:48;7.40;;;3.80;;
60919;SDS011;59039;52.108;19.942;2023-02-26T02:56:33;13.00;;;5.00;;
60919;SDS011;59039;52.108;19.942;2023-02-26T02:59:05;12.70;;;4.40;;
60919;SDS011;59039;52.108;19.942;2023-02-26T03:01:39;7.20;;;3.20;;
60919;SDS011;59039;52.108;19.942;2023-02-26T03:04:09;8.20;;;3.80;;
60919;SDS011;59039;52.108;19.942;2023-02-26T03:06:40;8.30;;;4.00;;
60919;SDS011;59039;52.108;19.942;2023-02-26T03:09:09;12.70;;;3.80;;
60919;SDS011;59039;52.108;19.942;2023-02-26T03:11:35;7.40;;;3.80;;
60919;SDS011;59039;52.108;19.942;2023-02-26T03:14:01;7.90;;;4.00;;
60919;SDS011;59039;52.108;19.942;2023-02-26T03:19:29;9.40;;;3.50;;
60919;SDS011;59039;52.108;19.942;2023-02-26T03:26:02;7.40;;;3.50;;
60919;SDS011;59039;52.108;19.942;2023-02-26T03:28:34;5.70;;;3.60;;
60919;SDS011;59039;52.108;19.942;2023-02-26T03:31:07;5.90;;;3.50;;
60919;SDS011;59039;52.108;19.942;2023-02-26T03:36:30;6.80;;;3.50;;
60919;SDS011;59039;52.108;19.942;2023-02-26T03:39:08;8.50;;;3.50;;
60919;SDS011;59039;52.108;19.942;2023-02-26T03:41:47;7.20;;;3.50;;
60919;SDS011;59039;52.108;19.942;2023-02-26T03:44:25;7.00;;;3.80;;
60919;SDS011;59039;52.108;19.942;2023-02-26T03:46:57;7.10;;;3.50;;
60919;SDS011;59039;52.108;19.942;2023-02-26T03:49:33;7.00;;;3.70;;
60919;SDS011;59039;52.108;19.942;2023-02-26T03:52:04;8.20;;;3.30;;
60919;SDS011;59039;52.108;19.942;2023-02-26T03:54:38;8.30;;;3.80;;
60919;SDS011;59039;52.108;19.942;2023-02-26T03:57:26;6.30;;;3.30;;
60919;SDS011;59039;52.108;19.942;2023-02-26T03:59:54;4.80;;;2.90;;
60919;SDS011;59039;52.108;19.942;2023-02-26T04:02:22;7.10;;;3.50;;
60919;SDS011;59039;52.108;19.942;2023-02-26T04:05:05;7.90;;;3.50;;
60919;SDS011;59039;52.108;19.942;2023-02-26T04:07:33;7.40;;;3.90;;
60919;SDS011;59039;52.108;19.942;2023-02-26T04:09:58;6.30;;;3.70;;
60919;SDS011;59039;52.108;19.942;2023-02-26T04:12:30;7.30;;;4.10;;
60919;SDS011;59039;52.108;19.942;2023-02-26T04:14:58;7.30;;;3.60;;
60919;SDS011;59039;52.108;19.942;2023-02-26T04:17:26;6.70;;;3.40;;
60919;SDS011;59039;52.108;19.942;2023-02-26T04:20:01;7.50;;;3.30;;
60919;SDS011;59039;52.108;19.942;2023-02-26T04:22:26;6.10;;;3.50;;
60919;SDS011;59039;52.108;19.942;2023-02-26T04:24:52;6.30;;;3.90;;
60919;SDS011;59039;52.108;19.942;2023-02-26T04:27:23;8.40;;;3.70;;
60919;SDS011;59039;52.108;19.942;2023-02-26T04:29:51;6.90;;;3.60;;
60919;SDS011;59039;52.108;19.942;2023-02-26T04:32:16;5.60;;;3.30;;
60919;SDS011;59039;52.108;19.942;2023-02-26T04:34:42;5.90;;;3.50;;
60919;SDS011;59039;52.108;19.942;2023-02-26T04:37:07;6.60;;;4.10;;
60919;SDS011;59039;52.108;19.942;2023-02-26T04:39:33;8.40;;;4.00;;
60919;SDS011;59039;52.108;19.942;2023-02-26T04:41:58;7.10;;;4.50;;
60919;SDS011;59039;52.108;19.942;2023-02-26T04:44:24;7.00;;;4.10;;
60919;SDS011;59039;52.108;19.942;2023-02-26T04:46:52;9.00;;;3.90;;
60919;SDS011;59039;52.108;19.942;2023-02-26T04:49:17;5.40;;;3.70;;
60919;SDS011;59039;52.108;19.942;2023-02-26T04:51:43;11.60;;;4.10;;
60919;SDS011;59039;52.108;19.942;2023-02-26T04:54:09;7.60;;;4.30;;
60919;SDS011;59039;52.108;19.942;2023-02-26T04:56:34;7.10;;;3.70;;
60919;SDS011;59039;52.108;19.942;2023-02-26T04:59:00;8.30;;;4.20;;
60919;SDS011;59039;52.108;19.942;2023-02-26T05:01:25;7.70;;;3.70;;
60919;SDS011;59039;52.108;19.942;2023-02-26T05:04:05;8.60;;;4.40;;
60919;SDS011;59039;52.108;19.942;2023-02-26T05:06:30;7.40;;;3.80;;
60919;SDS011;59039;52.108;19.942;2023-02-26T05:09:02;8.20;;;4.00;;
60919;SDS011;59039;52.108;19.942;2023-02-26T05:11:28;8.00;;;3.90;;
60919;SDS011;59039;52.108;19.942;2023-02-26T05:14:02;7.30;;;4.00;;
60919;SDS011;59039;52.108;19.942;2023-02-26T05:16:31;10.90;;;4.10;;
60919;SDS011;59039;52.108;19.942;2023-02-26T05:19:01;6.50;;;3.70;;
60919;SDS011;59039;52.108;19.942;2023-02-26T05:21:30;7.80;;;4.00;;
60919;SDS011;59039;52.108;19.942;2023-02-26T05:23:59;8.40;;;3.60;;
60919;SDS011;59039;52.108;19.942;2023-02-26T05:26:28;9.60;;;3.80;;
60919;SDS011;59039;52.108;19.942;2023-02-26T05:28:53;10.30;;;4.60;;
60919;SDS011;59039;52.108;19.942;2023-02-26T05:31:22;6.70;;;3.90;;
60919;SDS011;59039;52.108;19.942;2023-02-26T05:33:49;5.90;;;3.40;;
60919;SDS011;59039;52.108;19.942;2023-02-26T05:36:15;10.20;;;3.50;;
60919;SDS011;59039;52.108;19.942;2023-02-26T05:38:40;6.70;;;3.80;;
60919;SDS011;59039;52.108;19.942;2023-02-26T05:41:08;5.90;;;2.50;;
60919;SDS011;59039;52.108;19.942;2023-02-26T05:43:46;4.10;;;2.60;;
60919;SDS011;59039;52.108;19.942;2023-02-26T05:46:13;4.60;;;2.90;;
60919;SDS011;59039;52.108;19.942;2023-02-26T05:48:38;5.00;;;3.00;;
60919;SDS011;59039;52.108;19.942;2023-02-26T05:51:27;6.00;;;2.70;;
60919;SDS011;59039;52.108;19.942;2023-02-26T05:54:04;5.80;;;2.60;;
60919;SDS011;59039;52.108;19.942;2023-02-26T05:56:55;4.50;;;2.90;;
60919;SDS011;59039;52.108;19.942;2023-02-26T05:59:21;4.00;;;2.60;;
60919;SDS011;59039;52.108;19.942;2023-02-26T06:01:49;5.20;;;2.30;;
60919;SDS011;59039;52.108;19.942;2023-02-26T06:04:15;3.90;;;2.20;;
60919;SDS011;59039;52.108;19.942;2023-02-26T06:06:40;4.20;;;2.20;;
60919;SDS011;59039;52.108;19.942;2023-02-26T06:09:06;4.50;;;2.70;;
60919;SDS011;59039;52.108;19.942;2023-02-26T06:11:37;6.10;;;2.70;;
60919;SDS011;59039;52.108;19.942;2023-02-26T06:14:05;3.30;;;2.30;;
60919;SDS011;59039;52.108;19.942;2023-02-26T06:16:36;3.90;;;2.80;;
60919;SDS011;59039;52.108;19.942;2023-02-26T06:19:01;4.00;;;2.60;;
60919;SDS011;59039;52.108;19.942;2023-02-26T06:21:48;5.00;;;2.80;;
60919;SDS011;59039;52.108;19.942;2023-02-26T06:24:14;4.10;;;2.70;;
60919;SDS011;59039;52.108;19.942;2023-02-26T06:26:45;4.30;;;2.50;;
60919;SDS011;59039;52.108;19.942;2023-02-26T06:29:21;4.10;;;2.20;;
60919;SDS011;59039;52.108;19.942;2023-02-26T06:31:55;3.70;;;2.30;;
60919;SDS011;59039;52.108;19.942;2023-02-26T06:34:21;5.50;;;2.50;;
60919;SDS011;59039;52.108;19.942;2023-02-26T06:36:46;3.50;;;2.60;;
60919;SDS011;59039;52.108;19.942;2023-02-26T06:39:14;5.20;;;3.20;;
60919;SDS011;59039;52.108;19.942;2023-02-26T06:41:40;4.40;;;2.60;;
60919;SDS011;59039;52.108;19.942;2023-02-26T06:44:06;4.80;;;2.60;;
60919;SDS011;59039;52.108;19.942;2023-02-26T06:46:35;5.10;;;3.50;;
60919;SDS011;59039;52.108;19.942;2023-02-26T06:49:00;6.50;;;3.40;;
60919;SDS011;59039;52.108;19.942;2023-02-26T06:51:32;7.10;;;3.70;;
60919;SDS011;59039;52.108;19.942;2023-02-26T06:56:38;4.80;;;3.20;;
60919;SDS011;59039;52.108;19.942;2023-02-26T07:01:48;6.20;;;2.70;;
60919;SDS011;59039;52.108;19.942;2023-02-26T07:04:13;4.90;;;2.80;;
60919;SDS011;59039;52.108;19.942;2023-02-26T07:09:24;4.20;;;2.80;;
60919;SDS011;59039;52.108;19.942;2023-02-26T07:11:50;3.90;;;2.40;;
60919;SDS011;59039;52.108;19.942;2023-02-26T07:14:15;3.90;;;2.50;;
60919;SDS011;59039;52.108;19.942;2023-02-26T07:16:40;4.50;;;2.80;;
60919;SDS011;59039;52.108;19.942;2023-02-26T07:19:11;3.70;;;2.20;;
60919;SDS011;59039;52.108;19.942;2023-02-26T07:21:41;5.50;;;2.30;;
60919;SDS011;59039;52.108;19.942;2023-02-26T07:24:16;6.30;;;2.80;;
60919;SDS011;59039;52.108;19.942;2023-02-26T07:26:46;4.30;;;2.60;;
60919;SDS011;59039;52.108;19.942;2023-02-26T07:29:15;5.40;;;3.10;;
60919;SDS011;59039;52.108;19.942;2023-02-26T07:31:40;4.00;;;2.30;;
60919;SDS011;59039;52.108;19.942;2023-02-26T07:34:11;5.00;;;2.80;;
60919;SDS011;59039;52.108;19.942;2023-02-26T07:36:36;3.80;;;2.40;;
60919;SDS011;59039;52.108;19.942;2023-02-26T07:39:02;4.40;;;2.70;;
60919;SDS011;59039;52.108;19.942;2023-02-26T07:41:27;4.20;;;2.60;;
60919;SDS011;59039;52.108;19.942;2023-02-26T07:43:53;4.30;;;2.70;;
60919;SDS011;59039;52.108;19.942;2023-02-26T07:46:18;6.30;;;3.30;;
60919;SDS011;59039;52.108;19.942;2023-02-26T07:48:43;5.30;;;2.90;;
60919;SDS011;59039;52.108;19.942;2023-02-26T07:51:12;5.10;;;3.20;;
60919;SDS011;59039;52.108;19.942;2023-02-26T07:53:37;6.70;;;3.00;;
60919;SDS011;59039;52.108;19.942;2023-02-26T07:56:02;6.80;;;3.70;;
60919;SDS011;59039;52.108;19.942;2023-02-26T07:58:28;5.50;;;3.30;;
60919;SDS011;59039;52.108;19.942;2023-02-26T08:00:53;12.70;;;5.10;;
60919;SDS011;59039;52.108;19.942;2023-02-26T08:03:19;10.10;;;5.50;;
60919;SDS011;59039;52.108;19.942;2023-02-26T08:05:45;13.30;;;5.00;;
60919;SDS011;59039;52.108;19.942;2023-02-26T08:08:10;11.20;;;5.50;;
60919;SDS011;59039;52.108;19.942;2023-02-26T08:10:46;8.80;;;4.00;;
60919;SDS011;59039;52.108;19.942;2023-02-26T08:13:12;8.50;;;4.30;;
60919;SDS011;59039;52.108;19.942;2023-02-26T08:15:37;7.10;;;4.00;;
60919;SDS011;59039;52.108;19.942;2023-02-26T08:18:02;10.20;;;4.30;;
60919;SDS011;59039;52.108;19.942;2023-02-26T08:20:39;11.50;;;4.20;;
60919;SDS011;59039;52.108;19.942;2023-02-26T08:23:07;10.10;;;5.00;;
60919;SDS011;59039;52.108;19.942;2023-02-26T08:25:32;11.00;;;4.60;;
60919;SDS011;59039;52.108;19.942;2023-02-26T08:27:58;11.00;;;5.20;;
60919;SDS011;59039;52.108;19.942;2023-02-26T08:30:26;8.50;;;5.70;;
60919;SDS011;59039;52.108;19.942;2023-02-26T08:32:54;10.70;;;5.60;;
60919;SDS011;59039;52.108;19.942;2023-02-26T08:35:20;9.90;;;5.50;;
60919;SDS011;59039;52.108;19.942;2023-02-26T08:37:45;11.40;;;5.90;;
60919;SDS011;59039;52.108;19.942;2023-02-26T08:40:11;9.30;;;5.00;;
60919;SDS011;59039;52.108;19.942;2023-02-26T08:42:36;12.10;;;6.00;;
60919;SDS011;59039;52.108;19.942;2023-02-26T08:45:02;9.70;;;5.30;;
60919;SDS011;59039;52.108;19.942;2023-02-26T08:47:31;8.10;;;3.40;;
60919;SDS011;59039;52.108;19.942;2023-02-26T08:49:56;6.00;;;3.40;;
60919;SDS011;59039;52.108;19.942;2023-02-26T08:52:22;6.20;;;3.80;;
60919;SDS011;59039;52.108;19.942;2023-02-26T08:54:47;7.00;;;4.10;;
60919;SDS011;59039;52.108;19.942;2023-02-26T08:57:18;7.60;;;4.10;;
60919;SDS011;59039;52.108;19.942;2023-02-26T08:59:43;8.10;;;4.60;;
60919;SDS011;59039;52.108;19.942;2023-02-26T09:02:10;9.80;;;3.80;;
60919;SDS011;59039;52.108;19.942;2023-02-26T09:04:36;9.00;;;3.90;;
60919;SDS011;59039;52.108;19.942;2023-02-26T09:07:01;7.20;;;3.20;;
60919;SDS011;59039;52.108;19.942;2023-02-26T09:09:30;4.90;;;3.00;;
60919;SDS011;59039;52.108;19.942;2023-02-26T09:11:55;8.60;;;4.10;;
60919;SDS011;59039;52.108;19.942;2023-02-26T09:14:21;6.10;;;4.10;;
60919;SDS011;59039;52.108;19.942;2023-02-26T09:16:47;7.30;;;3.10;;
60919;SDS011;59039;52.108;19.942;2023-02-26T09:21:51;6.60;;;3.80;;
60919;SDS011;59039;52.108;19.942;2023-02-26T09:24:16;10.50;;;4.80;;
60919;SDS011;59039;52.108;19.942;2023-02-26T09:26:47;5.80;;;3.20;;
60919;SDS011;59039;52.108;19.942;2023-02-26T09:29:12;7.80;;;3.70;;
60919;SDS011;59039;52.108;19.942;2023-02-26T09:31:40;5.50;;;3.10;;
60919;SDS011;59039;52.108;19.942;2023-02-26T09:34:06;7.70;;;3.40;;
60919;SDS011;59039;52.108;19.942;2023-02-26T09:36:32;6.00;;;3.00;;
60919;SDS011;59039;52.108;19.942;2023-02-26T09:39:09;5.60;;;2.70;;
60919;SDS011;59039;52.108;19.942;2023-02-26T09:41:41;7.40;;;3.90;;
60919;SDS011;59039;52.108;19.942;2023-02-26T09:47:05;4.20;;;2.80;;
60919;SDS011;59039;52.108;19.942;2023-02-26T09:55:29;7.80;;;3.20;;
60919;SDS011;59039;52.108;19.942;2023-02-26T09:58:32;5.10;;;3.00;;
60919;SDS011;59039;52.108;19.942;2023-02-26T10:10:00;5.40;;;2.80;;
60919;SDS011;59039;52.108;19.942;2023-02-26T10:12:33;7.70;;;3.80;;
60919;SDS011;59039;52.108;19.942;2023-02-26T10:15:21;10.10;;;3.30;;
60919;SDS011;59039;52.108;19.942;2023-02-26T10:20:58;5.30;;;3.00;;
60919;SDS011;59039;52.108;19.942;2023-02-26T10:23:36;6.90;;;3.20;;
60919;SDS011;59039;52.108;19.942;2023-02-26T10:29:01;5.10;;;3.00;;
60919;SDS011;59039;52.108;19.942;2023-02-26T10:42:30;6.90;;;3.20;;
60919;SDS011;59039;52.108;19.942;2023-02-26T10:50:14;5.20;;;2.70;;
60919;SDS011;59039;52.108;19.942;2023-02-26T10:53:03;3.90;;;2.10;;
60919;SDS011;59039;52.108;19.942;2023-02-26T10:56:15;3.30;;;2.40;;
60919;SDS011;59039;52.108;19.942;2023-02-26T10:58:32;4.80;;;2.40;;
60919;SDS011;59039;52.108;19.942;2023-02-26T11:00:57;3.70;;;2.10;;
60919;SDS011;59039;52.108;19.942;2023-02-26T11:05:51;4.80;;;2.70;;
60919;SDS011;59039;52.108;19.942;2023-02-26T11:10:53;4.20;;;2.80;;
60919;SDS011;59039;52.108;19.942;2023-02-26T11:13:21;3.00;;;2.20;;
60919;SDS011;59039;52.108;19.942;2023-02-26T11:15:48;4.10;;;2.50;;
60919;SDS011;59039;52.108;19.942;2023-02-26T11:18:18;3.90;;;2.30;;
60919;SDS011;59039;52.108;19.942;2023-02-26T11:20:58;4.60;;;2.70;;
60919;SDS011;59039;52.108;19.942;2023-02-26T11:23:29;4.30;;;2.30;;
60919;SDS011;59039;52.108;19.942;2023-02-26T11:25:58;5.20;;;2.70;;
60919;SDS011;59039;52.108;19.942;2023-02-26T11:28:34;5.50;;;2.40;;
60919;SDS011;59039;52.108;19.942;2023-02-26T11:31:06;5.50;;;2.70;;
60919;SDS011;59039;52.108;19.942;2023-02-26T11:36:08;5.60;;;3.20;;
60919;SDS011;59039;52.108;19.942;2023-02-26T11:38:38;8.30;;;4.00;;
60919;SDS011;59039;52.108;19.942;2023-02-26T11:41:03;3.90;;;2.40;;
60919;SDS011;59039;52.108;19.942;2023-02-26T11:43:40;4.60;;;2.40;;
60919;SDS011;59039;52.108;19.942;2023-02-26T11:46:07;3.40;;;1.90;;
60919;SDS011;59039;52.108;19.942;2023-02-26T11:49:08;4.90;;;2.40;;
60919;SDS011;59039;52.108;19.942;2023-02-26T11:51:26;3.90;;;2.30;;
60919;SDS011;59039;52.108;19.942;2023-02-26T11:53:59;4.30;;;2.50;;
60919;SDS011;59039;52.108;19.942;2023-02-26T11:58:58;3.70;;;2.30;;
60919;SDS011;59039;52.108;19.942;2023-02-26T12:01:31;5.00;;;2.70;;
60919;SDS011;59039;52.108;19.942;2023-02-26T12:03:58;5.00;;;2.70;;
60919;SDS011;59039;52.108;19.942;2023-02-26T12:06:25;6.10;;;3.10;;
60919;SDS011;59039;52.108;19.942;2023-02-26T12:08:51;4.00;;;2.30;;
60919;SDS011;59039;52.108;19.942;2023-02-26T12:11:38;4.60;;;2.70;;
60919;SDS011;59039;52.108;19.942;2023-02-26T12:14:39;5.80;;;2.50;;
60919;SDS011;59039;52.108;19.942;2023-02-26T12:19:51;5.00;;;2.80;;
60919;SDS011;59039;52.108;19.942;2023-02-26T12:30:56;5.10;;;2.40;;
60919;SDS011;59039;52.108;19.942;2023-02-26T12:33:36;6.00;;;3.10;;
60919;SDS011;59039;52.108;19.942;2023-02-26T12:36:10;5.60;;;3.00;;
60919;SDS011;59039;52.108;19.942;2023-02-26T12:38:40;5.40;;;3.10;;
60919;SDS011;59039;52.108;19.942;2023-02-26T12:41:32;7.00;;;3.20;;
60919;SDS011;59039;52.108;19.942;2023-02-26T12:44:05;6.10;;;3.00;;
60919;SDS011;59039;52.108;19.942;2023-02-26T13:03:07;4.80;;;2.60;;
60919;SDS011;59039;52.108;19.942;2023-02-26T13:08:27;6.20;;;2.70;;
60919;SDS011;59039;52.108;19.942;2023-02-26T13:22:55;10.30;;;3.80;;
60919;SDS011;59039;52.108;19.942;2023-02-26T13:28:42;7.00;;;3.00;;
60919;SDS011;59039;52.108;19.942;2023-02-26T13:31:19;6.10;;;3.20;;
60919;SDS011;59039;52.108;19.942;2023-02-26T13:33:50;8.50;;;3.00;;
60919;SDS011;59039;52.108;19.942;2023-02-26T13:36:26;8.90;;;3.40;;
60919;SDS011;59039;52.108;19.942;2023-02-26T13:41:43;10.40;;;4.10;;
60919;SDS011;59039;52.108;19.942;2023-02-26T13:44:24;5.80;;;3.20;;
60919;SDS011;59039;52.108;19.942;2023-02-26T13:47:07;10.10;;;4.30;;
60919;SDS011;59039;52.108;19.942;2023-02-26T13:52:35;9.80;;;4.30;;
60919;SDS011;59039;52.108;19.942;2023-02-26T14:01:07;10.00;;;4.30;;
60919;SDS011;59039;52.108;19.942;2023-02-26T14:12:32;9.10;;;3.50;;
60919;SDS011;59039;52.108;19.942;2023-02-26T14:14:40;6.80;;;3.20;;
60919;SDS011;59039;52.108;19.942;2023-02-26T14:19:34;7.30;;;3.10;;
60919;SDS011;59039;52.108;19.942;2023-02-26T14:27:44;7.50;;;3.80;;
60919;SDS011;59039;52.108;19.942;2023-02-26T14:30:24;9.50;;;3.60;;
60919;SDS011;59039;52.108;19.942;2023-02-26T14:35:25;5.40;;;2.70;;
60919;SDS011;59039;52.108;19.942;2023-02-26T14:40:48;4.60;;;2.50;;
60919;SDS011;59039;52.108;19.942;2023-02-26T14:43:19;7.80;;;3.10;;
60919;SDS011;59039;52.108;19.942;2023-02-26T14:45:51;7.10;;;2.70;;
60919;SDS011;59039;52.108;19.942;2023-02-26T14:48:20;8.40;;;3.60;;
60919;SDS011;59039;52.108;19.942;2023-02-26T14:56:10;7.80;;;3.60;;
60919;SDS011;59039;52.108;19.942;2023-02-26T14:58:51;9.80;;;4.10;;
60919;SDS011;59039;52.108;19.942;2023-02-26T15:01:35;9.30;;;4.20;;
60919;SDS011;59039;52.108;19.942;2023-02-26T15:04:14;8.90;;;4.80;;
60919;SDS011;59039;52.108;19.942;2023-02-26T15:07:14;7.30;;;4.00;;
60919;SDS011;59039;52.108;19.942;2023-02-26T15:18:49;7.40;;;3.90;;
60919;SDS011;59039;52.108;19.942;2023-02-26T15:21:39;9.90;;;3.40;;
60919;SDS011;59039;52.108;19.942;2023-02-26T15:24:09;7.20;;;3.40;;
60919;SDS011;59039;52.108;19.942;2023-02-26T15:26:39;7.50;;;3.70;;
60919;SDS011;59039;52.108;19.942;2023-02-26T15:31:52;8.70;;;3.50;;
60919;SDS011;59039;52.108;19.942;2023-02-26T15:34:20;9.60;;;4.20;;
60919;SDS011;59039;52.108;19.942;2023-02-26T15:36:48;9.50;;;3.60;;
60919;SDS011;59039;52.108;19.942;2023-02-26T15:39:15;7.20;;;3.10;;
60919;SDS011;59039;52.108;19.942;2023-02-26T15:41:42;9.70;;;3.80;;
60919;SDS011;59039;52.108;19.942;2023-02-26T15:44:20;9.60;;;3.60;;
60919;SDS011;59039;52.108;19.942;2023-02-26T15:46:52;7.30;;;3.40;;
60919;SDS011;59039;52.108;19.942;2023-02-26T15:51:50;8.40;;;3.30;;
60919;SDS011;59039;52.108;19.942;2023-02-26T15:54:18;9.10;;;3.50;;
60919;SDS011;59039;52.108;19.942;2023-02-26T15:56:46;5.60;;;3.00;;
60919;SDS011;59039;52.108;19.942;2023-02-26T15:59:17;7.60;;;2.80;;
60919;SDS011;59039;52.108;19.942;2023-02-26T16:01:47;6.90;;;3.40;;
60919;SDS011;59039;52.108;19.942;2023-02-26T16:04:17;7.60;;;2.90;;
60919;SDS011;59039;52.108;19.942;2023-02-26T16:06:46;10.10;;;3.10;;
60919;SDS011;59039;52.108;19.942;2023-02-26T16:09:15;6.30;;;2.70;;
60919;SDS011;59039;52.108;19.942;2023-02-26T16:11:44;8.70;;;2.90;;
60919;SDS011;59039;52.108;19.942;2023-02-26T16:14:28;7.50;;;3.60;;
60919;SDS011;59039;52.108;19.942;2023-02-26T16:16:59;6.90;;;3.60;;
60919;SDS011;59039;52.108;19.942;2023-02-26T16:21:57;9.70;;;5.10;;
60919;SDS011;59039;52.108;19.942;2023-02-26T16:24:25;11.40;;;5.50;;
60919;SDS011;59039;52.108;19.942;2023-02-26T16:26:53;9.70;;;4.40;;
60919;SDS011;59039;52.108;19.942;2023-02-26T16:29:23;10.00;;;5.00;;
60919;SDS011;59039;52.108;19.942;2023-02-26T16:31:54;10.40;;;3.80;;
60919;SDS011;59039;52.108;19.942;2023-02-26T16:34:27;10.10;;;4.60;;
60919;SDS011;59039;52.108;19.942;2023-02-26T16:36:53;8.40;;;3.70;;
60919;SDS011;59039;52.108;19.942;2023-02-26T16:39:29;4.70;;;3.10;;
60919;SDS011;59039;52.108;19.942;2023-02-26T16:42:15;5.20;;;3.40;;
60919;SDS011;59039;52.108;19.942;2023-02-26T16:47:11;7.40;;;2.90;;
60919;SDS011;59039;52.108;19.942;2023-02-26T16:49:41;6.80;;;3.10;;
60919;SDS011;59039;52.108;19.942;2023-02-26T16:52:09;4.40;;;2.80;;
60919;SDS011;59039;52.108;19.942;2023-02-26T16:54:43;6.00;;;2.50;;
60919;SDS011;59039;52.108;19.942;2023-02-26T16:57:16;5.30;;;2.90;;
60919;SDS011;59039;52.108;19.942;2023-02-26T16:59:51;7.90;;;3.20;;
60919;SDS011;59039;52.108;19.942;2023-02-26T17:02:26;9.40;;;3.30;;
60919;SDS011;59039;52.108;19.942;2023-02-26T17:04:59;10.80;;;5.60;;
60919;SDS011;59039;52.108;19.942;2023-02-26T17:07:31;12.70;;;6.40;;
60919;SDS011;59039;52.108;19.942;2023-02-26T17:09:59;7.70;;;3.70;;
60919;SDS011;59039;52.108;19.942;2023-02-26T17:15:11;10.70;;;3.90;;
60919;SDS011;59039;52.108;19.942;2023-02-26T17:17:40;8.20;;;3.40;;
60919;SDS011;59039;52.108;19.942;2023-02-26T17:20:06;6.90;;;2.90;;
60919;SDS011;59039;52.108;19.942;2023-02-26T17:22:34;8.20;;;3.40;;
60919;SDS011;59039;52.108;19.942;2023-02-26T17:25:00;8.40;;;3.90;;
60919;SDS011;59039;52.108;19.942;2023-02-26T17:27:27;7.80;;;3.90;;
60919;SDS011;59039;52.108;19.942;2023-02-26T17:29:58;9.40;;;4.40;;
60919;SDS011;59039;52.108;19.942;2023-02-26T17:32:34;7.20;;;3.60;;
60919;SDS011;59039;52.108;19.942;2023-02-26T17:35:00;8.30;;;3.30;;
60919;SDS011;59039;52.108;19.942;2023-02-26T17:37:29;7.70;;;3.20;;
60919;SDS011;59039;52.108;19.942;2023-02-26T17:42:43;9.70;;;3.90;;
60919;SDS011;59039;52.108;19.942;2023-02-26T17:45:09;18.30;;;4.70;;
60919;SDS011;59039;52.108;19.942;2023-02-26T17:47:34;11.50;;;4.20;;
60919;SDS011;59039;52.108;19.942;2023-02-26T17:50:06;17.50;;;8.00;;
60919;SDS011;59039;52.108;19.942;2023-02-26T17:52:49;11.30;;;4.70;;
60919;SDS011;59039;52.108;19.942;2023-02-26T17:55:17;8.80;;;3.60;;
60919;SDS011;59039;52.108;19.942;2023-02-26T17:57:45;7.50;;;3.20;;
60919;SDS011;59039;52.108;19.942;2023-02-26T18:00:10;7.90;;;3.70;;
60919;SDS011;59039;52.108;19.942;2023-02-26T18:02:41;8.60;;;3.20;;
60919;SDS011;59039;52.108;19.942;2023-02-26T18:05:15;8.50;;;3.30;;
60919;SDS011;59039;52.108;19.942;2023-02-26T18:07:49;5.30;;;2.90;;
60919;SDS011;59039;52.108;19.942;2023-02-26T18:10:20;6.00;;;2.70;;
60919;SDS011;59039;52.108;19.942;2023-02-26T18:12:48;8.30;;;3.20;;
60919;SDS011;59039;52.108;19.942;2023-02-26T18:15:14;6.90;;;2.60;;